• Join FlightAware (Why Join?)
  • Login
  • US Flag 
09:48AM EDT


 

Airport Tracker/Info


-or-


 

Live Flight TrackerFlight Track Log ✈ SWA1619 ✈ 16-Apr-2013 ✈ KHOU - KBNA

Flight Track Log - Related Links

Times and Time Zones

All times are in EDT time to prevent confusion due to time zone crossing. See the SWA1619 flight status page for this flight to view local times or setup timezone preferences in your user account.

Time Position Orientation Groundspeed Altitude Reporting Facility
EDT Latitude Longitude Course Direction KTS MPH feet Rate Location/Type
08:05AM 29.6356 -95.2675 29° Northeast 137 158 800  Level Houston Center
08:06AM 29.6772 -95.2408 29° Northeast 247 284 3,500 1,920 Climbing Houston Center
08:07AM 29.7308 -95.2553 347° North 258 297 4,800 1,380 Climbing Houston Center
08:07AM 29.7603 -95.2764 328° Northwest 313 360 5,100 1,620 Climbing Houston Center
08:08AM 29.8014 -95.3092 325° Northwest 298 343 6,500 3,240 Climbing Houston Center
08:09AM 29.8853 -95.3700 328° Northwest 297 342 11,000 3,900 Climbing Houston Center
08:10AM 29.9689 -95.4158 335° Northwest 340 391 14,500 2,940 Climbing Houston Center
08:11AM 30.0536 -95.3522 33° Northeast 371 427 17,100 2,580 Climbing Houston Center
08:12AM 30.1372 -95.2708 40° Northeast 391 450 19,800 2,700 Climbing Houston Center
08:13AM 30.2269 -95.1831 40° Northeast 419 482 22,700 2,700 Climbing Houston Center
08:14AM 30.3194 -95.0911 41° Northeast 436 502 25,400 2,460 Climbing Houston Center
08:15AM 30.4189 -94.9933 40° Northeast 457 526 27,800 2,040 Climbing Houston Center
08:16AM 30.5267 -94.9097 34° Northeast 464 534 29,600 1,800 Climbing Houston Center
08:17AM 30.6406 -94.8233 33° Northeast 480 552 31,600 1,980 Climbing Houston Center
08:18AM 30.7544 -94.7369 33° Northeast 488 562 33,700 1,980 Climbing Houston Center
08:19AM 30.8922 -94.6303 34° Northeast 495 570 35,700 1,740 Climbing Houston Center
08:20AM 30.9336 -94.5969 35° Northeast 494 568 36,300 1,500 Climbing Fort Worth Center
08:21AM 31.0525 -94.5061 33° Northeast 494 568 37,900 1,500 Climbing Fort Worth Center
08:22AM 31.1694 -94.4200 32° Northeast 494 568 39,300 1,260 Climbing Fort Worth Center
08:23AM 31.2819 -94.3239 36° Northeast 499 574 40,500 840 Climbing Fort Worth Center
08:24AM 31.3989 -94.2350 33° Northeast 499 574 41,000 240 Climbing Fort Worth Center
08:25AM 31.5136 -94.1481 33° Northeast 499 574 41,000  Level Fort Worth Center
08:26AM 31.6261 -94.0589 34° Northeast 494 568 41,000  Level Fort Worth Center
08:27AM 31.7364 -93.9742 33° Northeast 485 558 41,000  Level Fort Worth Center
08:28AM 31.8314 -93.8606 45° Northeast 485 558 41,000  Level Fort Worth Center
08:29AM 31.9217 -93.7322 50° Northeast 485 558 41,000  Level Fort Worth Center
08:30AM 32.0056 -93.6064 52° Northeast 491 565 41,000  Level Fort Worth Center
08:31AM 32.0933 -93.4753 52° Northeast 496 571 41,000  Level Fort Worth Center
08:32AM 32.1789 -93.3392 53° Northeast 504 580 41,000  Level Fort Worth Center
08:33AM 32.2664 -93.2097 51° Northeast 509 586 41,000  Level Fort Worth Center
08:34AM 32.3542 -93.0903 49° Northeast 501 577 41,000  Level Fort Worth Center
08:35AM 32.4414 -92.9531 53° Northeast 496 571 41,000  Level Fort Worth Center
08:36AM 32.5264 -92.8258 52° Northeast 496 571 41,000  Level Fort Worth Center
08:37AM 32.6156 -92.6956 51° Northeast 496 571 41,000  Level Fort Worth Center
08:39AM 32.8033 -92.4111 52° Northeast 484 557 41,000  Level Memphis Center
08:40AM 32.8869 -92.2794 53° Northeast 490 564 41,000  Level Memphis Center
08:41AM 32.9722 -92.1525 51° Northeast 490 564 41,000  Level Memphis Center
08:42AM 33.0575 -92.0203 52° Northeast 495 570 41,000  Level Memphis Center
08:43AM 33.1406 -91.8881 53° Northeast 490 564 41,000  Level Memphis Center
08:44AM 33.2278 -91.7553 52° Northeast 502 578 41,000  Level Memphis Center
08:45AM 33.3147 -91.6225 52° Northeast 502 578 41,000  Level Memphis Center
08:46AM 33.3975 -91.4919 53° Northeast 502 578 41,000  Level Memphis Center
08:47AM 33.4800 -91.3608 53° Northeast 502 578 41,000  Level Memphis Center
08:48AM 33.5667 -91.2297 52° Northeast 502 578 41,000  Level Memphis Center
08:49AM 33.6489 -91.0983 53° Northeast 497 572 41,000  Level Memphis Center
08:50AM 33.7331 -90.9667 52° Northeast 492 566 41,000  Level Memphis Center
08:51AM 33.8150 -90.8397 52° Northeast 492 566 41,000  Level Memphis Center
08:52AM 33.8967 -90.7075 53° Northeast 492 566 41,000  Level Memphis Center
08:53AM 33.9869 -90.5650 53° Northeast 487 560 41,000  Level Memphis Center
08:54AM 34.0683 -90.4325 53° Northeast 487 560 41,000  Level Memphis Center
08:55AM 34.1478 -90.3019 54° Northeast 482 555 41,000  Level Memphis Center
08:56AM 34.2311 -90.1711 52° Northeast 487 560 41,000  Level Memphis Center
08:57AM 34.3122 -90.0378 54° Northeast 482 555 41,000 -240 Level Memphis Center
08:58AM 34.3931 -89.9042 54° Northeast 488 562 40,600 -660 Descending Memphis Center
08:59AM 34.4758 -89.7700 53° Northeast 493 567 39,700 -960 Descending Memphis Center
09:00AM 34.5567 -89.6333 54° Northeast 493 567 38,700 -960 Descending Memphis Center
09:01AM 34.6433 -89.4939 53° Northeast 506 582 37,800 -960 Descending Memphis Center
09:02AM 34.7258 -89.3564 54° Northeast 501 577 36,800 -1,020 Descending Memphis Center
09:03AM 34.8061 -89.2267 53° Northeast 486 559 35,800 -900 Descending Memphis Center
09:04AM 34.8861 -89.0939 54° Northeast 486 559 35,000 -420 Descending Memphis Center
09:05AM 34.9681 -88.9583 54° Northeast 486 559 35,000  Level Memphis Center
09:06AM 35.0478 -88.8225 54° Northeast 486 559 35,000  Level Memphis Center
09:07AM 35.1275 -88.6917 53° Northeast 480 552 35,000  Level Memphis Center
09:08AM 35.2069 -88.5578 54° Northeast 486 559 35,000 -1,080 Level Memphis Center
09:09AM 35.2764 -88.4469 52° Northeast 471 542 32,900 -2,400 Descending Memphis Center
09:10AM 35.3556 -88.3153 54° Northeast 464 534 30,300 -2,460 Descending Memphis Center
09:11AM 35.4306 -88.1808 56° Northeast 470 541 28,000 -2,400 Descending Memphis Center
09:12AM 35.5094 -88.0489 54° Northeast 456 525 25,600 -2,100 Descending Memphis Center
09:13AM 35.5719 -87.9425 54° Northeast 439 505 23,900 -1,920 Descending Memphis Center
09:14AM 35.6386 -87.8281 54° Northeast 427 491 21,800 -2,040 Descending Memphis Center
09:15AM 35.7050 -87.7136 54° Northeast 416 479 19,900 -1,920 Descending Memphis Center
09:16AM 35.7653 -87.6067 55° Northeast 391 450 18,000 -1,860 Descending Memphis Center
09:17AM 35.8233 -87.4972 57° Northeast 380 437 16,200 -1,860 Descending Memphis Center
09:18AM 35.8750 -87.3931 59° Northeast 370 426 14,300 -1,860 Descending Memphis Center
09:19AM 35.9203 -87.2786 64° Northeast 359 413 12,500 -1,740 Descending Memphis Center
09:20AM 35.9444 -87.1700 75° East 336 387 10,900 -1,380 Descending Memphis Center
09:21AM 35.9775 -87.0739 67° East 319 367 9,800 -1,260 Descending Memphis Center
09:22AM 36.0147 -86.9850 63° Northeast 292 336 8,400 -1,440 Descending Memphis Center
09:23AM 36.0519 -86.8961 63° Northeast 282 325 7,000 -1,260 Descending Memphis Center
09:24AM 36.0869 -86.8125 63° Northeast 282 325 5,900 -1,020 Descending Memphis Center
09:25AM 36.1569 -86.7786 21° North 263 303 5,000 -1,200 Descending Memphis Center
09:26AM 36.2269 -86.7500 18° North 252 290 3,600 -1,020 Descending Memphis Center
09:27AM 36.2842 -86.7061 32° Northeast 252 290 3,000 -660 Descending Memphis Center
09:28AM 36.2717 -86.6372 103° East 169 194 2,300 -540 Descending Memphis Center
09:29AM 36.2258 -86.6419 185° South 107 123 2,000 -300 Descending Memphis Center
09:30AM 36.1950 -86.6561 200° South 126 145 1,700 -480 Descending Memphis Center
09:31AM 36.1642 -86.6678 197° South 126 145 1,100 -600 Descending Memphis Center
09:33AM 36.1167 -86.6667 171° South  Level FlightAware Approximate
09:40AM 36.1245 -86.6782 171° South  Level Estimated